createdAt,value
2019-04-07T00:01:17.197Z,96222.00
2019-04-07T00:03:48.594Z,96228.00
2019-04-07T00:06:20.357Z,96219.00
2019-04-07T00:08:53.526Z,96215.00
2019-04-07T00:11:24.703Z,96218.00
2019-04-07T00:13:57.914Z,96216.00
2019-04-07T00:16:29.745Z,96206.00
2019-04-07T00:19:01.554Z,96211.00
2019-04-07T00:21:33.219Z,96206.00
2019-04-07T00:24:04.463Z,96209.00
2019-04-07T00:26:35.835Z,96214.00
2019-04-07T00:29:08.739Z,96208.00
2019-04-07T00:31:40.091Z,96213.00
2019-04-07T00:34:11.969Z,96213.00
2019-04-07T00:36:43.685Z,96213.00
2019-04-07T00:39:14.887Z,96200.00
2019-04-07T00:41:46.354Z,96214.00
2019-04-07T00:44:18.030Z,96199.00
2019-04-07T00:46:49.896Z,96194.00
2019-04-07T00:49:21.581Z,96209.00
2019-04-07T00:51:54.860Z,96203.00
2019-04-07T00:54:28.027Z,96208.00
2019-04-07T00:56:59.439Z,96205.00
2019-04-07T00:59:30.872Z,96200.00
2019-04-07T01:02:02.571Z,96205.00
2019-04-07T01:04:34.395Z,96204.00
2019-04-07T01:07:06.057Z,96211.00
2019-04-07T01:09:37.733Z,96218.00
2019-04-07T01:12:09.409Z,96212.00
2019-04-07T01:14:41.639Z,96201.00
2019-04-07T01:17:13.731Z,96231.00
2019-04-07T01:19:45.483Z,96209.00
2019-04-07T01:22:16.743Z,96222.00
2019-04-07T01:24:48.440Z,96218.00
2019-04-07T01:27:20.362Z,96220.00
2019-04-07T01:29:51.791Z,96213.00
2019-04-07T01:32:23.995Z,96211.00
2019-04-07T01:34:55.908Z,96216.00
2019-04-07T01:37:27.692Z,96219.00
2019-04-07T01:39:59.236Z,96223.00
2019-04-07T01:43:05.307Z,96214.00
2019-04-07T01:45:49.994Z,96211.00
2019-04-07T01:48:38.836Z,96205.00
2019-04-07T01:51:16.870Z,96203.00
2019-04-07T01:54:10.288Z,96205.00
2019-04-07T01:57:10.267Z,96208.00
2019-04-07T02:00:09.591Z,96204.00
2019-04-07T02:03:03.377Z,96208.00
2019-04-07T02:05:57.886Z,96200.00
2019-04-07T02:08:30.887Z,96201.00
2019-04-07T02:11:21.272Z,96199.00
2019-04-07T02:14:00.516Z,96191.00
2019-04-07T02:16:39.917Z,96197.00
2019-04-07T02:19:49.909Z,96202.00
2019-04-07T02:22:46.608Z,96202.00
2019-04-07T02:25:39.497Z,96200.00
2019-04-07T02:28:46.240Z,96201.00
2019-04-07T02:31:40.139Z,96195.00
2019-04-07T02:34:50.924Z,96207.00
2019-04-07T02:37:41.415Z,96200.00
2019-04-07T02:40:47.594Z,96200.00
2019-04-07T02:43:36.500Z,96200.00
2019-04-07T02:46:27.171Z,96201.00
2019-04-07T02:49:12.559Z,96199.00
2019-04-07T02:51:54.840Z,96212.00
2019-04-07T02:54:40.776Z,96204.00
2019-04-07T02:57:43.247Z,96186.00
2019-04-07T03:00:30.397Z,96209.00
2019-04-07T03:03:12.976Z,96215.00
2019-04-07T03:06:03.760Z,96213.00
2019-04-07T03:08:52.616Z,96212.00
2019-04-07T03:11:37.324Z,96219.00
2019-04-07T03:14:15.378Z,96227.00
2019-04-07T03:17:06.664Z,96217.00
2019-04-07T03:19:52.400Z,96222.00
2019-04-07T03:22:49.221Z,96228.00
2019-04-07T03:25:28.785Z,96229.00
2019-04-07T03:28:10.368Z,96217.00
2019-04-07T03:31:02.155Z,96217.00
2019-04-07T03:33:45.962Z,96221.00
2019-04-07T03:37:09.919Z,96228.00
2019-04-07T03:39:22.405Z,96222.00
2019-04-07T03:42:03.780Z,96218.00
2019-04-07T03:44:56.906Z,96219.00
2019-04-07T03:47:33.203Z,96231.00
2019-04-07T03:50:12.866Z,96230.00
2019-04-07T03:53:21.217Z,96213.00
2019-04-07T03:56:11.519Z,96221.00
2019-04-07T03:59:02.040Z,96216.00
2019-04-07T04:01:47.983Z,96233.00
2019-04-07T04:04:43.854Z,96217.00
2019-04-07T04:07:36.521Z,96222.00
2019-04-07T04:10:19.338Z,96217.00
2019-04-07T04:13:05.210Z,96230.00
2019-04-07T04:15:53.607Z,96227.00
2019-04-07T04:18:24.926Z,96235.00
2019-04-07T04:20:57.165Z,96230.00
2019-04-07T04:23:28.691Z,96235.00
2019-04-07T04:26:00.936Z,96231.00
2019-04-07T04:28:32.062Z,96228.00
2019-04-07T04:31:03.386Z,96240.00
2019-04-07T04:33:34.994Z,96227.00
2019-04-07T04:36:08.079Z,96231.00
2019-04-07T04:38:40.359Z,96233.00
2019-04-07T04:41:11.840Z,96242.00
2019-04-07T04:43:43.033Z,96242.00
2019-04-07T04:46:15.094Z,96239.00
2019-04-07T04:48:47.972Z,96249.00
2019-04-07T04:51:19.753Z,96237.00
2019-04-07T04:53:51.753Z,96238.00
2019-04-07T04:56:23.017Z,96245.00
2019-04-07T04:58:54.122Z,96254.00
2019-04-07T05:01:25.531Z,96247.00
2019-04-07T05:03:56.925Z,96236.00
2019-04-07T05:06:29.526Z,96251.00
2019-04-07T05:09:01.208Z,96241.00
2019-04-07T05:11:34.427Z,96252.00
2019-04-07T05:14:06.128Z,96260.00
2019-04-07T05:16:37.787Z,96249.00
2019-04-07T05:19:10.018Z,96251.00
2019-04-07T05:21:41.676Z,96247.00
2019-04-07T05:24:13.001Z,96251.00
2019-04-07T05:26:44.465Z,96247.00
2019-04-07T05:29:16.005Z,96244.00
2019-04-07T05:31:47.217Z,96245.00
2019-04-07T05:34:20.644Z,96244.00
2019-04-07T05:36:52.221Z,96259.00
2019-04-07T05:39:24.998Z,96253.00
2019-04-07T05:41:57.056Z,96255.00
2019-04-07T05:44:30.221Z,96263.00
2019-04-07T05:47:01.667Z,96264.00
2019-04-07T05:49:33.536Z,96259.00
2019-04-07T05:52:05.809Z,96264.00
2019-04-07T05:54:37.927Z,96269.00
2019-04-07T05:57:09.753Z,96271.00
2019-04-07T05:59:42.294Z,96268.00
2019-04-07T06:02:14.395Z,96271.00
2019-04-07T06:04:46.829Z,96275.00
2019-04-07T06:07:19.107Z,96280.00
2019-04-07T06:09:52.620Z,96291.00
2019-04-07T06:12:23.782Z,96273.00
2019-04-07T06:14:55.204Z,96284.00
2019-04-07T06:17:27.719Z,96273.00
2019-04-07T06:19:59.686Z,96268.00
2019-04-07T06:22:30.940Z,96279.00
2019-04-07T06:25:04.056Z,96270.00
2019-04-07T06:27:35.801Z,96265.00
2019-04-07T06:30:09.788Z,96270.00
2019-04-07T06:32:43.638Z,96269.00
2019-04-07T06:35:14.351Z,96262.00
2019-04-07T06:37:46.438Z,96259.00
2019-04-07T06:40:20.574Z,96265.00
2019-04-07T06:42:51.221Z,96269.00
2019-04-07T06:45:26.120Z,96263.00
2019-04-07T06:48:01.485Z,96268.00
2019-04-07T06:50:59.389Z,96267.00
2019-04-07T06:53:54.801Z,96275.00
2019-04-07T06:56:43.746Z,96278.00
2019-04-07T06:59:37.234Z,96280.00
2019-04-07T07:02:33.213Z,96275.00
2019-04-07T07:05:22.392Z,96279.00
2019-04-07T07:08:10.175Z,96277.00
2019-04-07T07:10:58.538Z,96273.00
2019-04-07T07:13:46.494Z,96273.00
2019-04-07T07:16:26.845Z,96275.00
2019-04-07T07:19:29.307Z,96277.00
2019-04-07T07:22:16.113Z,96278.00
2019-04-07T07:24:47.623Z,96277.00
2019-04-07T07:27:19.030Z,96274.00
2019-04-07T07:29:53.608Z,96286.00
2019-04-07T07:32:24.600Z,96286.00
2019-04-07T07:34:55.801Z,96277.00
2019-04-07T07:37:27.993Z,96281.00
2019-04-07T07:39:59.829Z,96274.00
2019-04-07T07:42:32.123Z,96275.00
2019-04-07T07:45:08.288Z,96271.00
2019-04-07T07:47:37.301Z,96283.00
2019-04-07T07:50:08.945Z,96274.00
2019-04-07T07:52:41.844Z,96266.00
2019-04-07T07:55:14.223Z,96274.00
2019-04-07T07:57:47.016Z,96285.00
2019-04-07T08:00:18.860Z,96277.00
2019-04-07T08:02:51.675Z,96274.00
2019-04-07T08:05:23.709Z,96277.00
2019-04-07T08:07:56.116Z,96287.00
2019-04-07T08:10:27.607Z,96286.00
2019-04-07T08:12:59.533Z,96281.00
2019-04-07T08:15:33.226Z,96299.00
2019-04-07T08:18:07.653Z,96289.00
2019-04-07T08:20:38.465Z,96297.00
2019-04-07T08:23:11.835Z,96289.00
2019-04-07T08:25:43.593Z,96298.00
2019-04-07T08:28:16.087Z,96294.00
2019-04-07T08:30:48.093Z,96297.00
2019-04-07T08:33:20.192Z,96293.00
2019-04-07T08:35:54.242Z,96293.00
2019-04-07T08:38:26.705Z,96297.00
2019-04-07T08:40:57.687Z,96300.00
2019-04-07T08:43:28.998Z,96296.00
2019-04-07T08:46:02.223Z,96292.00
2019-04-07T08:48:34.667Z,96292.00
2019-04-07T08:51:06.968Z,96285.00
2019-04-07T08:53:38.838Z,96290.00
2019-04-07T08:56:11.902Z,96290.00
2019-04-07T08:58:43.259Z,96283.00
2019-04-07T09:01:19.315Z,96291.00
2019-04-07T09:03:48.595Z,96294.00
2019-04-07T09:06:20.925Z,96281.00
2019-04-07T09:08:53.220Z,96283.00
2019-04-07T09:11:25.375Z,96281.00
2019-04-07T09:13:57.065Z,96276.00
2019-04-07T09:16:56.137Z,96278.00
2019-04-07T09:19:45.782Z,96278.00
2019-04-07T09:22:37.752Z,96279.00
2019-04-07T09:25:26.082Z,96285.00
2019-04-07T09:28:04.349Z,96277.00
2019-04-07T09:30:54.840Z,96279.00
2019-04-07T09:33:55.014Z,96278.00
2019-04-07T09:36:42.945Z,96273.00
2019-04-07T09:39:39.474Z,96274.00
2019-04-07T09:42:32.302Z,96277.00
2019-04-07T09:45:23.985Z,96275.00
2019-04-07T09:48:19.874Z,96282.00
2019-04-07T09:51:07.199Z,96286.00
2019-04-07T09:53:55.614Z,96284.00
2019-04-07T09:56:36.211Z,96277.00
2019-04-07T09:59:33.914Z,96280.00
2019-04-07T10:02:20.848Z,96284.00
2019-04-07T10:05:11.776Z,96286.00
2019-04-07T10:07:53.266Z,96291.00
2019-04-07T10:10:42.464Z,96276.00
2019-04-07T10:13:31.790Z,96282.00
2019-04-07T10:16:22.241Z,96287.00
2019-04-07T10:19:11.672Z,96280.00
2019-04-07T10:21:52.704Z,96282.00
2019-04-07T10:24:56.023Z,96285.00
2019-04-07T10:27:38.257Z,96286.00
2019-04-07T10:30:39.315Z,96279.00
2019-04-07T10:33:30.481Z,96296.00
2019-04-07T10:36:19.503Z,96280.00
2019-04-07T10:39:01.943Z,96287.00
2019-04-07T10:41:52.193Z,96282.00
2019-04-07T10:44:34.244Z,96292.00
2019-04-07T10:47:16.009Z,96292.00
2019-04-07T10:50:06.872Z,96287.00
2019-04-07T10:52:42.736Z,96294.00
2019-04-07T10:55:36.286Z,96289.00
2019-04-07T10:58:16.346Z,96292.00
2019-04-07T11:01:06.386Z,96292.00
2019-04-07T11:03:55.618Z,96283.00
2019-04-07T11:06:58.655Z,96286.00
2019-04-07T11:09:38.805Z,96291.00
2019-04-07T11:12:27.629Z,96280.00
2019-04-07T11:15:10.701Z,96279.00
2019-04-07T11:18:16.536Z,96290.00
2019-04-07T11:21:13.073Z,96288.00
2019-04-07T11:24:01.528Z,96276.00
2019-04-07T11:27:07.046Z,96287.00
2019-04-07T11:29:45.594Z,96288.00
2019-04-07T11:32:36.004Z,96296.00
2019-04-07T11:35:15.348Z,96284.00
2019-04-07T11:38:05.813Z,96293.00
2019-04-07T11:40:54.627Z,96280.00
2019-04-07T11:43:36.978Z,96287.00
2019-04-07T11:46:36.526Z,96290.00
2019-04-07T11:49:30.213Z,96288.00
2019-04-07T11:52:08.256Z,96291.00
2019-04-07T11:54:57.637Z,96285.00
2019-04-07T11:58:02.935Z,96278.00
2019-04-07T12:00:41.694Z,96276.00
2019-04-07T12:03:29.935Z,96283.00
2019-04-07T12:06:26.848Z,96286.00
2019-04-07T12:09:28.281Z,96278.00
2019-04-07T12:12:13.677Z,96278.00
2019-04-07T12:14:55.127Z,96277.00
2019-04-07T12:17:44.943Z,96281.00
2019-04-07T12:20:36.337Z,96281.00
2019-04-07T12:23:22.045Z,96274.00
2019-04-07T12:26:04.145Z,96281.00
2019-04-07T12:28:50.366Z,96275.00
2019-04-07T12:31:53.229Z,96270.00
2019-04-07T12:34:59.904Z,96273.00
2019-04-07T12:37:43.709Z,96276.00
2019-04-07T12:40:34.255Z,96283.00
2019-04-07T12:43:13.758Z,96280.00
2019-04-07T12:45:49.355Z,96276.00
2019-04-07T12:48:43.525Z,96280.00
2019-04-07T12:51:27.576Z,96273.00
2019-04-07T12:54:33.149Z,96278.00
2019-04-07T12:57:22.011Z,96270.00
2019-04-07T13:00:24.939Z,96270.00
2019-04-07T13:03:15.193Z,96277.00
2019-04-07T13:06:11.609Z,96262.00
2019-04-07T13:08:53.671Z,96269.00
2019-04-07T13:11:35.387Z,96271.00
2019-04-07T13:14:15.064Z,96253.00
2019-04-07T13:17:02.887Z,96266.00
2019-04-07T13:19:48.948Z,96264.00
2019-04-07T13:22:45.691Z,96266.00
2019-04-07T13:25:37.409Z,96270.00
2019-04-07T13:28:12.252Z,96270.00
2019-04-07T13:31:01.799Z,96265.00
2019-04-07T13:33:59.755Z,96263.00
2019-04-07T13:36:54.238Z,96260.00
2019-04-07T13:39:42.821Z,96260.00
2019-04-07T13:42:33.734Z,96261.00
2019-04-07T13:45:25.390Z,96265.00
2019-04-07T13:48:02.842Z,96259.00
2019-04-07T13:50:52.546Z,96262.00
2019-04-07T13:54:02.178Z,96264.00
2019-04-07T13:56:49.903Z,96262.00
2019-04-07T13:59:39.209Z,96265.00
2019-04-07T14:02:30.203Z,96246.00
2019-04-07T14:05:08.962Z,96269.00
2019-04-07T14:07:57.164Z,96267.00
2019-04-07T14:10:45.014Z,96268.00
2019-04-07T14:13:29.971Z,96273.00
2019-04-07T14:16:19.810Z,96270.00
2019-04-07T14:19:05.526Z,96280.00
2019-04-07T14:22:00.038Z,96272.00
2019-04-07T14:24:56.903Z,96276.00
2019-04-07T14:27:56.644Z,96277.00
2019-04-07T14:30:49.935Z,96284.00
2019-04-07T14:33:46.936Z,96283.00
2019-04-07T14:36:36.144Z,96280.00
2019-04-07T14:39:17.667Z,96291.00
2019-04-07T14:42:08.755Z,96275.00
2019-04-07T14:44:47.846Z,96293.00
2019-04-07T14:47:28.789Z,96276.00
2019-04-07T14:50:24.430Z,96279.00
2019-04-07T14:53:15.331Z,96283.00
2019-04-07T14:55:56.015Z,96283.00
2019-04-07T14:58:53.377Z,96282.00
2019-04-07T15:01:42.393Z,96279.00
2019-04-07T15:04:14.085Z,96282.00
2019-04-07T15:06:47.092Z,96294.00
2019-04-07T15:09:28.593Z,96294.00
2019-04-07T15:12:15.454Z,96286.00
2019-04-07T15:14:38.020Z,96293.00
2019-04-07T15:17:11.030Z,96296.00
2019-04-07T15:19:42.365Z,96301.00
2019-04-07T15:22:13.618Z,96301.00
2019-04-07T15:24:45.351Z,96298.00
2019-04-07T15:27:22.083Z,96297.00
2019-04-07T15:29:50.348Z,96298.00
2019-04-07T15:32:26.649Z,96298.00
2019-04-07T15:34:54.936Z,96303.00
2019-04-07T15:37:26.034Z,96303.00
2019-04-07T15:40:00.969Z,96300.00
2019-04-07T15:42:40.304Z,96306.00
2019-04-07T15:45:04.897Z,96314.00
2019-04-07T15:47:36.274Z,96305.00
2019-04-07T15:50:08.498Z,96313.00
2019-04-07T15:52:43.719Z,96309.00
2019-04-07T15:55:13.549Z,96313.00
2019-04-07T15:57:45.097Z,96319.00
2019-04-07T16:00:17.031Z,96328.00
2019-04-07T16:02:50.188Z,96334.00
2019-04-07T16:05:21.578Z,96335.00
2019-04-07T16:07:55.040Z,96340.00
2019-04-07T16:10:26.218Z,96348.00
2019-04-07T16:12:59.428Z,96349.00
2019-04-07T16:15:30.821Z,96346.00
2019-04-07T16:18:04.764Z,96342.00
2019-04-07T16:20:39.489Z,96352.00
2019-04-07T16:23:08.211Z,96350.00
2019-04-07T16:25:41.563Z,96341.00
2019-04-07T16:28:14.650Z,96359.00
2019-04-07T16:30:49.003Z,96354.00
2019-04-07T16:33:19.451Z,96354.00
2019-04-07T16:35:55.120Z,96363.00
2019-04-07T16:38:24.241Z,96363.00
2019-04-07T16:40:55.928Z,96367.00
2019-04-07T16:43:32.275Z,96370.00
2019-04-07T16:46:01.763Z,96381.00
2019-04-07T16:48:36.032Z,96374.00
2019-04-07T16:51:07.182Z,96368.00
2019-04-07T16:53:41.712Z,96375.00
2019-04-07T16:56:11.578Z,96375.00
2019-04-07T16:58:43.711Z,96370.00
2019-04-07T17:01:15.943Z,96373.00
2019-04-07T17:03:47.589Z,96372.00
2019-04-07T17:06:19.954Z,96371.00
2019-04-07T17:08:53.202Z,96368.00
2019-04-07T17:11:25.391Z,96376.00
2019-04-07T17:13:56.965Z,96375.00
2019-04-07T17:16:29.062Z,96371.00
2019-04-07T17:19:00.963Z,96375.00
2019-04-07T17:21:33.156Z,96376.00
2019-04-07T17:24:05.584Z,96373.00
2019-04-07T17:26:39.223Z,96373.00
2019-04-07T17:29:09.866Z,96370.00
2019-04-07T17:31:41.477Z,96373.00
2019-04-07T17:34:13.423Z,96372.00
2019-04-07T17:36:48.489Z,96374.00
2019-04-07T17:39:46.949Z,96380.00
2019-04-07T17:42:20.761Z,96385.00
2019-04-07T17:45:11.379Z,96384.00
2019-04-07T17:48:07.027Z,96384.00
2019-04-07T17:51:06.294Z,96392.00
2019-04-07T17:53:55.800Z,96387.00
2019-04-07T17:56:51.084Z,96391.00
2019-04-07T17:59:53.608Z,96391.00
2019-04-07T18:02:56.000Z,96390.00
2019-04-07T18:05:39.275Z,96395.00
2019-04-07T18:08:45.968Z,96403.00
2019-04-07T18:11:30.176Z,96403.00
2019-04-07T18:14:20.812Z,96416.00
2019-04-07T18:17:16.451Z,96407.00
2019-04-07T18:20:08.541Z,96409.00
2019-04-07T18:23:05.479Z,96410.00
2019-04-07T18:25:58.931Z,96418.00
2019-04-07T18:28:37.026Z,96415.00
2019-04-07T18:31:20.020Z,96418.00
2019-04-07T18:34:17.370Z,96422.00
2019-04-07T18:37:07.071Z,96422.00
2019-04-07T18:40:00.681Z,96425.00
2019-04-07T18:42:49.011Z,96422.00
2019-04-07T18:45:44.806Z,96432.00
2019-04-07T18:48:31.897Z,96428.00
2019-04-07T18:51:23.162Z,96424.00
2019-04-07T18:54:12.399Z,96435.00
2019-04-07T18:57:05.496Z,96427.00
2019-04-07T18:59:59.384Z,96429.00
2019-04-07T19:02:46.064Z,96436.00
2019-04-07T19:05:42.616Z,96436.00
2019-04-07T19:08:25.031Z,96443.00
2019-04-07T19:11:17.733Z,96437.00
2019-04-07T19:14:14.101Z,96445.00
2019-04-07T19:16:52.400Z,96439.00
2019-04-07T19:19:46.740Z,96437.00
2019-04-07T19:22:49.044Z,96442.00
2019-04-07T19:25:41.964Z,96440.00
2019-04-07T19:28:43.636Z,96438.00
2019-04-07T19:31:28.068Z,96439.00
2019-04-07T19:34:09.911Z,96448.00
2019-04-07T19:37:00.178Z,96443.00
2019-04-07T19:39:49.321Z,96439.00
2019-04-07T19:42:39.887Z,96452.00
2019-04-07T19:45:36.026Z,96443.00
2019-04-07T19:48:39.116Z,96441.00
2019-04-07T19:51:31.795Z,96442.00
2019-04-07T19:54:21.719Z,96441.00
2019-04-07T19:57:12.008Z,96438.00
2019-04-07T20:00:10.977Z,96436.00
2019-04-07T20:03:04.231Z,96439.00
2019-04-07T20:06:05.545Z,96445.00
2019-04-07T20:08:49.360Z,96446.00
2019-04-07T20:11:38.647Z,96454.00
2019-04-07T20:14:30.499Z,96452.00
2019-04-07T20:17:17.374Z,96451.00
2019-04-07T20:20:13.781Z,96443.00
2019-04-07T20:23:04.490Z,96454.00
2019-04-07T20:25:55.523Z,96451.00
2019-04-07T20:29:02.160Z,96455.00
2019-04-07T20:32:05.159Z,96455.00
2019-04-07T20:34:48.321Z,96450.00
2019-04-07T20:37:28.700Z,96448.00
2019-04-07T20:40:17.297Z,96448.00
2019-04-07T20:42:58.475Z,96446.00
2019-04-07T20:45:42.856Z,96452.00
2019-04-07T20:48:36.140Z,96453.00
2019-04-07T20:51:22.133Z,96450.00
2019-04-07T20:54:05.588Z,96448.00
2019-04-07T20:56:57.482Z,96449.00
2019-04-07T20:59:55.566Z,96444.00
2019-04-07T21:03:10.876Z,96452.00
2019-04-07T21:05:56.410Z,96445.00
2019-04-07T21:08:47.535Z,96445.00
2019-04-07T21:11:53.436Z,96436.00
2019-04-07T21:14:43.163Z,96436.00
2019-04-07T21:17:21.865Z,96438.00
2019-04-07T21:20:11.858Z,96437.00
2019-04-07T21:23:07.061Z,96439.00
2019-04-07T21:26:01.498Z,96441.00
2019-04-07T21:28:43.926Z,96441.00
2019-04-07T21:31:34.476Z,96435.00
2019-04-07T21:34:40.642Z,96433.00
2019-04-07T21:37:30.860Z,96439.00
2019-04-07T21:40:24.389Z,96436.00
2019-04-07T21:43:09.349Z,96436.00
2019-04-07T21:45:58.370Z,96441.00
2019-04-07T21:48:47.565Z,96446.00
2019-04-07T21:51:33.494Z,96446.00
2019-04-07T21:54:14.586Z,96444.00
2019-04-07T21:56:58.147Z,96441.00
2019-04-07T21:59:45.778Z,96442.00
2019-04-07T22:02:25.679Z,96437.00
2019-04-07T22:05:19.867Z,96449.00
2019-04-07T22:08:22.439Z,96442.00
2019-04-07T22:10:53.998Z,96441.00
2019-04-07T22:13:25.874Z,96435.00
2019-04-07T22:16:01.527Z,96431.00
2019-04-07T22:18:31.086Z,96428.00
2019-04-07T22:21:03.309Z,96440.00
2019-04-07T22:23:34.507Z,96444.00
2019-04-07T22:26:09.446Z,96443.00
2019-04-07T22:28:39.534Z,96445.00
2019-04-07T22:31:14.343Z,96435.00
2019-04-07T22:33:46.600Z,96444.00
2019-04-07T22:36:18.773Z,96446.00
2019-04-07T22:38:54.416Z,96434.00
2019-04-07T22:41:25.048Z,96457.00
2019-04-07T22:43:57.451Z,96449.00
2019-04-07T22:46:29.095Z,96449.00
2019-04-07T22:49:00.917Z,96445.00
2019-04-07T22:51:32.794Z,96450.00
2019-04-07T22:54:03.959Z,96456.00
2019-04-07T22:56:37.528Z,96445.00
2019-04-07T22:59:10.444Z,96442.00
2019-04-07T23:01:43.048Z,96438.00
2019-04-07T23:04:14.498Z,96439.00
2019-04-07T23:06:45.659Z,96432.00
2019-04-07T23:09:18.004Z,96438.00
2019-04-07T23:11:50.254Z,96440.00
2019-04-07T23:14:21.365Z,96432.00
2019-04-07T23:16:52.927Z,96441.00
2019-04-07T23:19:24.927Z,96442.00
2019-04-07T23:21:56.487Z,96448.00
2019-04-07T23:24:27.600Z,96435.00
2019-04-07T23:26:59.511Z,96434.00
2019-04-07T23:29:30.565Z,96450.00
2019-04-07T23:32:01.904Z,96447.00
2019-04-07T23:34:33.028Z,96459.00
2019-04-07T23:37:04.387Z,96449.00
2019-04-07T23:39:35.632Z,96449.00
2019-04-07T23:42:07.024Z,96450.00
2019-04-07T23:44:38.098Z,96454.00
2019-04-07T23:47:11.166Z,96448.00
2019-04-07T23:49:42.645Z,96449.00
2019-04-07T23:52:14.539Z,96442.00
2019-04-07T23:54:46.131Z,96441.00
2019-04-07T23:57:17.744Z,96445.00
2019-04-07T23:59:49.142Z,96436.00
